Time;durP1;ratioP1;P1;durP2;ratioP2;P2;SDS_P1;SDS_P2;PMS_P1;PMS_P2;Temp;Humidity;BMP_temperature;BMP_pressure;BME280_temperature;BME280_humidity;BME280_pressure;Samples;Min_cycle;Max_cycle;Signal;HPM_P1;HPM_P2
2022/05/24 00:00:13;;;;;;;9.50;4.45;;;14.50;99.90;;;;;;4977726;28;20034;-84
2022/05/24 00:02:39;;;;;;;10.60;4.68;;;14.40;99.90;;;;;;4961651;28;20044;-84
2022/05/24 00:05:05;;;;;;;9.73;4.78;;;14.40;99.90;;;;;;4977552;28;20499;-84
2022/05/24 00:07:31;;;;;;;10.02;5.72;;;14.30;99.90;;;;;;4961625;28;20073;-84
2022/05/24 00:09:57;;;;;;;9.38;4.68;;;14.30;99.90;;;;;;4977775;28;20523;-84
2022/05/24 00:12:23;;;;;;;9.93;5.80;;;14.30;99.90;;;;;;4977791;28;20046;-84
2022/05/24 00:17:32;;;;;;;10.70;4.43;;;14.30;99.90;;;;;;4977042;28;20544;-84
2022/05/24 00:19:58;;;;;;;11.73;5.47;;;14.30;99.90;;;;;;4977570;28;20030;-84
2022/05/24 00:22:23;;;;;;;15.00;9.18;;;14.20;99.90;;;;;;4977330;28;20561;-84
2022/05/24 00:24:49;;;;;;;11.80;9.63;;;14.20;99.90;;;;;;4961259;28;20052;-83
2022/05/24 00:27:14;;;;;;;14.07;11.77;;;14.20;99.90;;;;;;4977368;28;20042;-84
2022/05/24 00:29:40;;;;;;;13.70;9.00;;;14.30;99.90;;;;;;4977424;28;20052;-84
2022/05/24 00:32:06;;;;;;;15.85;9.98;;;14.20;99.90;;;;;;4961433;28;20039;-84
2022/05/24 00:34:31;;;;;;;18.08;10.90;;;14.20;99.90;;;;;;4977472;28;20046;-84
2022/05/24 00:36:57;;;;;;;18.27;15.90;;;14.10;99.90;;;;;;4977605;28;20049;-84
2022/05/24 00:39:22;;;;;;;15.07;10.65;;;14.20;99.90;;;;;;4990732;28;20038;-83
2022/05/24 00:42:05;;;;;;;16.70;10.13;;;14.20;99.90;;;;;;4969775;28;20034;-84
2022/05/24 00:44:38;;;;;;;14.98;9.02;;;14.20;99.90;;;;;;4972007;28;20042;-84
2022/05/24 00:47:24;;;;;;;14.45;10.10;;;14.10;99.90;;;;;;4954025;28;20049;-83
2022/05/24 00:49:57;;;;;;;16.83;13.20;;;14.10;99.90;;;;;;4973632;28;20054;-84
2022/05/24 00:52:30;;;;;;;15.13;8.65;;;14.10;99.90;;;;;;4972107;28;20121;-84
2022/05/24 00:54:58;;;;;;;13.10;7.75;;;14.20;99.90;;;;;;4971557;28;20455;-84
2022/05/24 00:57:36;;;;;;;14.68;8.63;;;14.00;99.90;;;;;;4974439;28;20065;-84
2022/05/24 01:00:09;;;;;;;14.10;8.55;;;14.00;99.90;;;;;;4977527;28;20140;-84
2022/05/24 01:02:36;;;;;;;14.82;10.65;;;14.00;99.90;;;;;;4977097;28;20089;-84
2022/05/24 01:05:07;;;;;;;13.73;8.18;;;14.00;99.90;;;;;;4976927;28;20132;-84
2022/05/24 01:07:32;;;;;;;15.57;8.20;;;14.00;99.90;;;;;;4976277;28;20073;-85
2022/05/24 01:10:06;;;;;;;17.17;11.77;;;14.00;99.90;;;;;;4976211;28;20073;-84
2022/05/24 01:12:36;;;;;;;13.52;7.35;;;14.00;99.90;;;;;;4975969;28;20034;-84
2022/05/24 01:15:06;;;;;;;11.68;6.75;;;14.00;99.90;;;;;;4976497;28;20093;-84
2022/05/24 01:17:32;;;;;;;11.68;7.40;;;14.00;99.90;;;;;;4960376;28;20472;-84
2022/05/24 01:19:58;;;;;;;12.68;10.15;;;13.90;99.90;;;;;;4976429;28;20038;-84
2022/05/24 01:22:48;;;;;;;12.02;9.57;;;13.90;99.90;;;;;;4976462;28;20084;-85
2022/05/24 01:25:40;;;;;;;12.20;6.70;;;13.90;99.90;;;;;;4976577;28;20049;-84
2022/05/24 01:28:14;;;;;;;13.88;6.38;;;13.90;99.90;;;;;;4976533;28;20423;-84
2022/05/24 01:30:40;;;;;;;13.32;6.72;;;13.80;99.90;;;;;;4976602;28;20065;-84
2022/05/24 01:38:56;;;;;;;10.73;6.68;;;13.80;99.90;;;;;;4935863;29;20437;-84
2022/05/24 01:41:28;;;;;;;13.55;7.75;;;13.80;99.90;;;;;;4969197;28;20508;-85
2022/05/24 01:43:56;;;;;;;14.05;10.85;;;13.80;99.90;;;;;;4976127;28;20403;-84
2022/05/24 01:46:29;;;;;;;14.77;11.00;;;13.80;99.90;;;;;;4975475;28;20598;-84
2022/05/24 01:48:59;;;;;;;14.82;11.18;;;13.80;99.90;;;;;;4975647;28;20050;-84
2022/05/24 01:51:31;;;;;;;16.17;12.25;;;13.90;99.90;;;;;;4976277;28;20085;-84
2022/05/24 01:54:00;;;;;;;14.80;7.97;;;13.90;99.90;;;;;;4960154;28;20050;-84
2022/05/24 01:56:36;;;;;;;13.43;7.68;;;13.80;99.90;;;;;;4960026;28;20165;-84
2022/05/24 01:59:04;;;;;;;14.95;8.77;;;13.80;99.90;;;;;;4959633;28;20049;-84
2022/05/24 02:01:40;;;;;;;15.55;9.57;;;13.80;99.90;;;;;;4976227;28;20128;-84
2022/05/24 02:04:06;;;;;;;20.33;16.20;;;13.70;99.90;;;;;;4975247;28;20038;-85
2022/05/24 02:06:32;;;;;;;17.08;11.82;;;13.80;99.90;;;;;;4975546;28;20046;-85
2022/05/24 02:08:58;;;;;;;19.42;12.02;;;13.80;99.90;;;;;;4975546;28;20468;-84
2022/05/24 02:11:27;;;;;;;19.58;13.85;;;13.80;99.90;;;;;;4975625;28;20540;-85
2022/05/24 02:14:08;;;;;;;19.88;13.32;;;13.80;99.90;;;;;;4975510;28;20066;-84
2022/05/24 02:16:36;;;;;;;22.67;20.38;;;13.80;99.90;;;;;;4975646;28;20128;-84
2022/05/24 02:19:03;;;;;;;20.75;14.07;;;13.90;99.90;;;;;;4975050;28;20052;-84
2022/05/24 02:21:29;;;;;;;24.98;22.48;;;13.90;99.90;;;;;;4975324;28;20514;-84
2022/05/24 02:23:54;;;;;;;22.10;15.45;;;13.90;99.90;;;;;;4975881;28;20038;-85
2022/05/24 02:26:22;;;;;;;21.92;17.02;;;13.90;99.90;;;;;;4975622;28;20572;-85
2022/05/24 02:28:53;;;;;;;27.33;24.52;;;13.90;99.90;;;;;;4974948;28;20038;-85
2022/05/24 02:31:20;;;;;;;23.80;16.30;;;13.90;99.90;;;;;;4959384;28;20049;-84
2022/05/24 02:33:46;;;;;;;24.70;18.15;;;13.90;99.90;;;;;;4975511;28;20054;-84
2022/05/24 02:36:14;;;;;;;25.48;18.73;;;13.90;99.90;;;;;;4975392;28;20081;-84
2022/05/24 02:38:39;;;;;;;29.95;26.83;;;13.90;99.90;;;;;;4958918;28;20041;-84
2022/05/24 02:43:49;;;;;;;23.15;17.30;;;14.00;99.90;;;;;;4974954;28;20038;-84
2022/05/24 02:46:19;;;;;;;31.02;28.02;;;13.90;99.90;;;;;;4975312;28;20038;-84
2022/05/24 02:48:44;;;;;;;30.45;27.52;;;14.00;99.90;;;;;;4974466;28;20069;-84
2022/05/24 02:51:17;;;;;;;25.77;19.60;;;14.10;99.90;;;;;;4974699;28;20077;-85
2022/05/24 02:53:43;;;;;;;;;;;14.10;99.90;;;;;;4959273;28;20042;-85
2022/05/24 02:56:09;;;;;;;32.33;29.05;;;14.00;99.90;;;;;;4975447;28;20260;-84
2022/05/24 02:58:35;;;;;;;30.15;19.98;;;14.10;99.90;;;;;;4973813;28;20487;-84
2022/05/24 03:01:01;;;;;;;33.33;30.02;;;14.10;99.90;;;;;;4974862;28;20472;-84
2022/05/24 03:03:27;;;;;;;29.40;20.77;;;14.10;99.90;;;;;;4975066;28;20073;-85
2022/05/24 03:05:53;;;;;;;27.08;21.23;;;14.10;99.90;;;;;;4974837;28;20076;-85
2022/05/24 03:11:05;;;;;;;29.40;20.15;;;14.10;99.90;;;;;;4974843;28;20042;-84
2022/05/24 03:16:16;;;;;;;29.10;21.33;;;14.20;99.90;;;;;;4974873;28;20047;-85
2022/05/24 03:18:42;;;;;;;33.95;30.45;;;14.20;99.90;;;;;;4957937;28;20061;-84
2022/05/24 03:21:08;;;;;;;28.45;20.85;;;14.20;99.90;;;;;;4974541;28;20706;-85
2022/05/24 03:23:34;;;;;;;35.85;32.35;;;14.20;99.90;;;;;;4974746;28;20129;-84
2022/05/24 03:26:01;;;;;;;28.42;20.77;;;14.20;99.90;;;;;;4991923;28;20046;-85
2022/05/24 03:28:27;;;;;;;34.25;30.83;;;14.20;99.90;;;;;;4974206;28;20041;-84
2022/05/24 03:30:54;;;;;;;29.95;21.20;;;14.20;99.90;;;;;;4974611;28;20038;-85
2022/05/24 03:33:20;;;;;;;28.23;20.48;;;14.20;99.90;;;;;;4974554;28;20047;-85
2022/05/24 03:35:45;;;;;;;32.10;22.27;;;14.20;99.90;;;;;;4974715;28;20056;-85
2022/05/24 03:38:11;;;;;;;35.35;32.05;;;14.20;99.90;;;;;;4974328;28;20045;-85
2022/05/24 03:40:37;;;;;;;29.58;24.15;;;14.30;99.90;;;;;;4958449;28;20043;-85
2022/05/24 03:43:09;;;;;;;33.42;30.20;;;14.30;99.90;;;;;;4974490;28;20047;-85
2022/05/24 03:45:35;;;;;;;28.60;19.00;;;14.30;99.90;;;;;;4974719;28;20126;-85
2022/05/24 03:48:00;;;;;;;33.63;30.10;;;14.30;99.90;;;;;;4973890;28;20050;-85
2022/05/24 03:50:26;;;;;;;33.17;29.98;;;14.30;99.90;;;;;;4958482;28;20030;-85
2022/05/24 03:52:52;;;;;;;26.38;20.98;;;14.40;99.90;;;;;;4974553;28;20046;-85
2022/05/24 03:55:18;;;;;;;33.03;29.65;;;14.30;99.90;;;;;;4974417;28;20125;-85
2022/05/24 03:58:02;;;;;;;24.25;18.10;;;14.40;99.90;;;;;;4974105;28;20042;-85
2022/05/24 04:00:40;;;;;;;33.97;30.55;;;14.40;99.90;;;;;;4958340;28;20485;-85
2022/05/24 04:03:06;;;;;;;25.40;20.83;;;14.40;99.90;;;;;;4974484;28;20522;-85
2022/05/24 04:05:32;;;;;;;31.85;28.42;;;14.40;99.90;;;;;;4974382;28;20050;-85
2022/05/24 04:07:59;;;;;;;29.63;20.15;;;14.30;99.90;;;;;;4974400;28;20042;-85
2022/05/24 04:10:25;;;;;;;32.55;29.33;;;14.40;99.90;;;;;;4976935;28;20042;-84
2022/05/24 04:12:51;;;;;;;31.67;28.60;;;14.40;99.90;;;;;;4977655;28;20125;-85
2022/05/24 04:15:18;;;;;;;28.67;21.38;;;14.40;99.90;;;;;;4977944;28;20125;-84
2022/05/24 04:17:45;;;;;;;26.67;19.50;;;14.40;99.90;;;;;;4977662;28;20407;-84
2022/05/24 04:20:10;;;;;;;33.58;30.33;;;14.40;99.90;;;;;;4977810;28;20423;-85
2022/05/24 04:22:36;;;;;;;28.52;22.45;;;14.40;99.90;;;;;;4977879;28;20046;-85
2022/05/24 04:25:03;;;;;;;27.25;23.02;;;14.40;99.90;;;;;;4977435;28;20077;-85
2022/05/24 04:27:28;;;;;;;33.03;29.77;;;14.40;99.90;;;;;;4977592;28;20046;-85
2022/05/24 04:29:54;;;;;;;31.88;22.13;;;14.40;99.90;;;;;;4977593;28;20099;-85
2022/05/24 04:32:21;;;;;;;33.80;30.60;;;14.40;99.90;;;;;;4977633;28;20066;-85
2022/05/24 04:34:47;;;;;;;28.58;20.95;;;14.40;99.90;;;;;;4977614;28;20078;-84
2022/05/24 04:37:12;;;;;;;33.95;30.75;;;14.40;99.90;;;;;;4977445;28;20096;-84
2022/05/24 04:39:38;;;;;;;30.42;22.63;;;14.50;99.90;;;;;;4977281;28;20092;-85
2022/05/24 04:42:21;;;;;;;31.13;27.88;;;14.40;99.90;;;;;;4977551;28;20050;-84
2022/05/24 04:44:50;;;;;;;24.92;19.10;;;14.40;99.90;;;;;;4961326;28;20092;-84
2022/05/24 04:47:17;;;;;;;30.23;26.70;;;14.30;99.90;;;;;;4977190;28;20096;-85
2022/05/24 04:49:46;;;;;;;29.73;24.95;;;14.30;99.90;;;;;;4976688;28;20515;-85
2022/05/24 04:52:13;;;;;;;26.20;16.45;;;14.30;99.90;;;;;;4977174;28;20121;-84
2022/05/24 04:54:40;;;;;;;22.75;15.82;;;14.20;99.90;;;;;;4977237;28;20042;-85
2022/05/24 04:57:07;;;;;;;25.33;22.52;;;14.10;99.90;;;;;;4976996;28;20108;-85
2022/05/24 04:59:33;;;;;;;25.23;15.82;;;14.10;99.90;;;;;;4976950;28;20034;-85
2022/05/24 05:01:59;;;;;;;25.70;22.77;;;14.10;99.90;;;;;;4977022;28;20042;-85
2022/05/24 05:04:24;;;;;;;26.67;17.58;;;14.10;99.90;;;;;;4960839;28;20042;-85
2022/05/24 05:06:50;;;;;;;27.73;24.55;;;14.10;99.90;;;;;;4976967;28;20125;-85
2022/05/24 05:09:17;;;;;;;24.83;16.80;;;14.10;99.90;;;;;;4960229;28;20144;-85
2022/05/24 05:11:42;;;;;;;25.90;17.17;;;14.00;99.90;;;;;;4976882;28;20117;-85
2022/05/24 05:14:09;;;;;;;28.58;24.00;;;14.00;99.90;;;;;;4976778;28;20125;-84
2022/05/24 05:16:36;;;;;;;23.40;16.33;;;14.00;99.90;;;;;;4976992;28;20053;-85
2022/05/24 05:19:03;;;;;;;26.10;16.23;;;14.00;99.90;;;;;;4976372;28;20037;-85
2022/05/24 05:21:34;;;;;;;27.17;22.67;;;13.90;99.90;;;;;;4975905;28;20492;-85
2022/05/24 05:24:01;;;;;;;25.60;17.33;;;14.00;99.90;;;;;;4976892;28;20412;-85
2022/05/24 05:26:26;;;;;;;21.92;15.93;;;14.00;99.90;;;;;;4976383;28;20088;-85
2022/05/24 05:28:53;;;;;;;28.20;25.08;;;13.90;99.90;;;;;;4976575;28;20042;-85
2022/05/24 05:31:22;;;;;;;28.05;24.70;;;14.00;99.90;;;;;;4976493;28;20042;-84
2022/05/24 05:33:49;;;;;;;23.17;15.57;;;14.00;99.90;;;;;;4976549;28;20085;-85
2022/05/24 05:36:15;;;;;;;28.67;25.63;;;14.00;99.90;;;;;;4976324;28;20073;-85
2022/05/24 05:38:46;;;;;;;29.10;25.20;;;14.00;99.90;;;;;;4976347;28;20042;-85
2022/05/24 05:41:13;;;;;;;25.30;16.60;;;14.00;99.90;;;;;;4976652;28;20069;-85
2022/05/24 05:43:39;;;;;;;25.60;16.63;;;14.00;99.90;;;;;;4976593;28;20034;-85
2022/05/24 05:46:05;;;;;;;28.42;24.05;;;14.00;99.90;;;;;;4976348;28;20488;-85
2022/05/24 05:48:31;;;;;;;27.08;17.23;;;14.00;99.90;;;;;;4975636;28;20488;-85
2022/05/24 05:50:56;;;;;;;26.20;23.45;;;14.00;99.90;;;;;;4976281;28;20117;-85
2022/05/24 05:53:22;;;;;;;24.27;16.38;;;14.00;99.90;;;;;;4976016;28;20103;-85
2022/05/24 05:55:48;;;;;;;24.27;16.48;;;14.00;99.90;;;;;;4976406;28;20096;-85
2022/05/24 05:58:13;;;;;;;28.05;24.17;;;13.90;99.90;;;;;;4976033;28;20385;-85
2022/05/24 06:00:41;;;;;;;27.95;24.23;;;14.00;99.90;;;;;;4976333;28;20030;-85
2022/05/24 06:03:07;;;;;;;23.35;17.00;;;14.00;99.90;;;;;;4976022;28;20484;-84
2022/05/24 06:05:32;;;;;;;27.58;24.85;;;14.00;99.90;;;;;;4975697;28;20049;-84
2022/05/24 06:07:59;;;;;;;25.50;17.13;;;14.00;99.90;;;;;;4959671;28;20046;-84
2022/05/24 06:10:25;;;;;;;26.85;23.95;;;14.00;99.90;;;;;;4975819;28;20057;-84
2022/05/24 06:12:51;;;;;;;22.63;15.90;;;14.10;99.90;;;;;;4975776;28;20034;-84
2022/05/24 06:15:18;;;;;;;26.55;23.70;;;14.00;99.90;;;;;;4959192;28;20129;-84
2022/05/24 06:17:46;;;;;;;24.02;16.80;;;14.00;99.90;;;;;;4983196;28;20053;-84
2022/05/24 06:20:12;;;;;;;27.45;22.70;;;14.00;99.90;;;;;;4974857;28;20038;-84
2022/05/24 06:22:38;;;;;;;22.40;15.80;;;14.00;99.90;;;;;;4975212;28;20049;-85
2022/05/24 06:25:04;;;;;;;22.73;16.13;;;14.00;99.90;;;;;;4975155;28;20042;-84
2022/05/24 06:27:30;;;;;;;29.45;17.00;;;14.00;99.90;;;;;;4991614;28;20065;-84
2022/05/24 06:29:56;;;;;;;24.48;15.32;;;14.00;99.90;;;;;;5008088;28;20073;-84
2022/05/24 06:32:21;;;;;;;22.92;20.63;;;14.00;99.90;;;;;;4975332;28;20034;-85
2022/05/24 06:34:48;;;;;;;23.73;21.17;;;14.00;99.90;;;;;;4975676;28;20467;-85
2022/05/24 06:37:15;;;;;;;23.80;14.27;;;14.10;99.90;;;;;;4975055;28;20045;-84
2022/05/24 06:39:41;;;;;;;23.75;20.17;;;14.00;99.90;;;;;;4974911;28;20038;-84
2022/05/24 06:42:07;;;;;;;18.65;13.63;;;14.10;99.90;;;;;;4959331;28;20042;-85
2022/05/24 06:44:32;;;;;;;21.58;14.73;;;14.10;99.90;;;;;;4975212;28;20097;-85
2022/05/24 06:46:58;;;;;;;23.13;20.58;;;14.10;99.90;;;;;;5008096;28;20077;-85
2022/05/24 06:49:24;;;;;;;22.52;19.42;;;14.10;99.90;;;;;;5007485;28;20555;-85
2022/05/24 06:51:49;;;;;;;23.00;15.43;;;14.10;99.90;;;;;;4958519;28;20030;-85
2022/05/24 06:54:15;;;;;;;23.00;19.77;;;14.10;99.90;;;;;;4990838;28;20043;-85
2022/05/24 06:56:40;;;;;;;23.98;19.48;;;14.10;99.90;;;;;;4991281;28;20045;-85
2022/05/24 07:04:34;;;;;;;21.85;12.55;;;14.00;99.90;;;;;;5007177;28;20050;-85
2022/05/24 07:06:59;;;;;;;24.25;18.67;;;14.00;99.90;;;;;;4974917;28;20042;-84
2022/05/24 07:09:29;;;;;;;23.00;13.57;;;14.00;99.90;;;;;;4974423;28;20049;-84
2022/05/24 07:11:55;;;;;;;21.40;18.00;;;14.00;99.90;;;;;;4974835;28;20046;-84
2022/05/24 07:14:21;;;;;;;17.58;13.18;;;14.00;99.90;;;;;;4973885;28;20051;-85
2022/05/24 07:16:46;;;;;;;21.27;17.20;;;14.00;99.90;;;;;;4971922;28;20038;-84
2022/05/24 07:19:12;;;;;;;20.60;12.80;;;14.10;99.90;;;;;;4971045;28;20038;-84
2022/05/24 07:21:37;;;;;;;17.38;11.25;;;14.10;99.90;;;;;;4972026;28;20481;-84
2022/05/24 07:24:03;;;;;;;19.67;11.77;;;14.00;99.90;;;;;;4971626;28;20046;-84
2022/05/24 07:26:29;;;;;;;21.27;16.92;;;14.00;99.90;;;;;;4971729;28;20046;-85
2022/05/24 07:28:54;;;;;;;19.17;12.23;;;14.10;99.90;;;;;;4989769;28;20097;-85
2022/05/24 07:31:20;;;;;;;19.27;11.82;;;14.10;99.90;;;;;;4974566;28;20471;-85
2022/05/24 07:33:46;;;;;;;21.17;17.08;;;14.00;99.90;;;;;;4974938;28;20515;-84
2022/05/24 07:36:11;;;;;;;21.85;12.98;;;14.10;99.90;;;;;;4974750;28;20034;-85
2022/05/24 07:38:38;;;;;;;19.50;15.73;;;14.10;99.90;;;;;;4958138;28;20052;-85
2022/05/24 07:46:33;;;;;;;17.52;11.18;;;14.20;99.90;;;;;;5011151;28;20042;-85
2022/05/24 07:48:59;;;;;;;20.10;15.55;;;14.10;99.90;;;;;;5010653;28;20121;-85
2022/05/24 07:51:24;;;;;;;18.85;14.90;;;14.20;99.90;;;;;;4978320;28;20078;-85
2022/05/24 07:53:50;;;;;;;21.10;12.45;;;14.10;99.90;;;;;;4978261;28;20069;-85
2022/05/24 07:56:18;;;;;;;15.68;9.35;;;14.20;99.90;;;;;;4978253;28;20056;-84
2022/05/24 07:58:44;;;;;;;17.90;11.18;;;14.10;99.90;;;;;;4978012;28;20458;-84
2022/05/24 08:01:10;;;;;;;18.25;14.45;;;14.10;99.90;;;;;;4978119;28;20531;-84
2022/05/24 08:03:36;;;;;;;17.50;10.27;;;14.20;99.90;;;;;;4978393;28;20034;-85
2022/05/24 08:06:02;;;;;;;18.05;11.90;;;14.20;99.90;;;;;;4978137;28;20045;-84
2022/05/24 08:08:28;;;;;;;17.25;9.80;;;14.20;99.90;;;;;;5010533;28;20093;-84
2022/05/24 08:10:53;;;;;;;17.40;14.00;;;14.20;99.90;;;;;;4978136;28;20038;-85
2022/05/24 08:13:20;;;;;;;18.63;10.38;;;14.30;99.90;;;;;;4993946;28;20488;-84
2022/05/24 08:15:49;;;;;;;16.77;13.18;;;14.30;99.90;;;;;;5010395;28;20042;-84
2022/05/24 08:18:15;;;;;;;18.45;10.07;;;14.30;99.90;;;;;;4993607;28;20128;-84
2022/05/24 08:20:41;;;;;;;16.50;12.50;;;14.40;99.90;;;;;;4993807;28;20122;-84
2022/05/24 08:23:07;;;;;;;16.95;12.82;;;14.50;99.90;;;;;;5010221;28;20038;-84
2022/05/24 08:25:33;;;;;;;17.17;12.90;;;14.50;99.90;;;;;;4993998;28;20046;-84
2022/05/24 08:28:03;;;;;;;15.25;9.25;;;14.60;99.90;;;;;;4993542;28;20044;-84
2022/05/24 08:30:31;;;;;;;17.30;12.10;;;14.60;99.90;;;;;;4993571;28;20038;-84
2022/05/24 08:32:56;;;;;;;14.68;9.90;;;14.70;99.90;;;;;;4973873;28;20120;-83
2022/05/24 08:35:23;;;;;;;16.75;12.60;;;14.70;99.90;;;;;;4972457;28;20089;-84
2022/05/24 08:37:50;;;;;;;20.92;11.10;;;14.70;99.90;;;;;;4993345;28;20074;-84
2022/05/24 08:40:18;;;;;;;17.42;12.07;;;14.70;99.90;;;;;;4976799;28;20042;-83
2022/05/24 08:42:50;;;;;;;16.67;11.57;;;14.80;99.90;;;;;;5002332;28;20050;-82
2022/05/24 08:48:28;;;;;;;14.38;9.60;;;14.90;99.90;;;;;;5006958;28;20054;-84
2022/05/24 08:51:26;;;;;;;13.35;7.80;;;15.00;99.90;;;;;;4993224;28;20172;-85
2022/05/24 08:53:56;;;;;;;13.90;8.25;;;15.10;99.90;;;;;;5009936;28;20050;-85
2022/05/24 08:56:29;;;;;;;12.90;8.20;;;15.20;99.90;;;;;;4991861;28;20046;-85
2022/05/24 08:59:34;;;;;;;12.75;6.45;;;15.40;99.90;;;;;;4993001;28;20500;-85
2022/05/24 09:02:01;;;;;;;12.95;7.47;;;15.50;99.90;;;;;;4965599;28;20663;-85
2022/05/24 09:04:29;;;;;;;12.55;6.65;;;15.50;99.90;;;;;;4976955;28;20077;-86
2022/05/24 09:07:07;;;;;;;13.77;5.80;;;15.50;99.90;;;;;;4977021;28;20046;-85
2022/05/24 09:09:58;;;;;;;10.43;5.55;;;15.50;99.90;;;;;;5009299;28;20097;-85
2022/05/24 09:12:33;;;;;;;11.10;6.18;;;15.60;99.90;;;;;;5009175;28;20049;-85
2022/05/24 09:15:24;;;;;;;14.20;6.10;;;15.70;99.90;;;;;;4976406;28;20049;-84
2022/05/24 09:18:21;;;;;;;11.73;6.20;;;15.70;99.90;;;;;;5009124;28;20049;-84
2022/05/24 09:20:47;;;;;;;10.77;6.50;;;15.80;99.90;;;;;;4967443;28;20531;-85
2022/05/24 09:23:21;;;;;;;12.07;6.28;;;15.80;99.90;;;;;;5009488;28;20464;-85
2022/05/24 09:26:01;;;;;;;12.95;5.53;;;15.90;99.90;;;;;;5009312;28;20125;-85
2022/05/24 09:28:45;;;;;;;10.50;6.55;;;15.90;99.90;;;;;;5008950;28;20082;-85
2022/05/24 09:31:28;;;;;;;11.30;6.35;;;15.80;99.90;;;;;;5008987;28;20061;-85
2022/05/24 09:34:16;;;;;;;8.95;4.18;;;15.70;99.90;;;;;;4976045;28;20047;-85
2022/05/24 09:36:51;;;;;;;10.85;4.88;;;15.50;99.90;;;;;;4992631;28;20073;-85
2022/05/24 09:39:42;;;;;;;11.48;7.05;;;15.50;99.90;;;;;;4975953;28;20132;-85
2022/05/24 09:42:13;;;;;;;11.80;6.10;;;15.50;99.90;;;;;;4964928;28;20054;-85
2022/05/24 09:44:46;;;;;;;11.38;6.78;;;15.50;99.90;;;;;;4976585;28;20050;-85
2022/05/24 09:47:31;;;;;;;;;;;15.50;99.90;;;;;;4976611;28;20105;-85
2022/05/24 09:50:21;;;;;;;10.77;5.90;;;15.40;99.90;;;;;;4992505;28;20296;-85
2022/05/24 09:53:02;;;;;;;8.75;3.08;;;15.40;99.90;;;;;;4992288;28;20049;-85
2022/05/24 09:55:48;;;;;;;9.80;4.65;;;15.20;99.90;;;;;;4992529;28;20447;-85
2022/05/24 09:58:20;;;;;;;8.82;4.40;;;14.90;99.90;;;;;;4974879;28;20051;-85
2022/05/24 10:00:51;;;;;;;8.52;4.38;;;14.70;99.90;;;;;;4992409;28;20043;-84
2022/05/24 10:03:28;;;;;;;12.27;7.60;;;14.50;99.90;;;;;;5008406;28;20049;-83
2022/05/24 10:06:06;;;;;;;12.02;7.22;;;14.40;99.90;;;;;;4992107;28;20077;-84
2022/05/24 10:08:48;;;;;;;9.27;5.05;;;14.40;99.90;;;;;;4973445;28;20130;-83
2022/05/24 10:11:52;;;;;;;10.00;7.05;;;14.30;99.90;;;;;;4989323;28;20046;-84
2022/05/24 10:14:29;;;;;;;10.95;5.72;;;14.50;99.90;;;;;;5005380;28;20050;-84
2022/05/24 10:17:33;;;;;;;10.45;5.82;;;14.70;99.90;;;;;;4988986;28;20042;-84
2022/05/24 10:20:20;;;;;;;9.63;6.20;;;14.90;99.90;;;;;;4975531;28;20042;-84
2022/05/24 10:23:09;;;;;;;10.52;5.60;;;15.00;99.90;;;;;;5008279;28;20089;-84
2022/05/24 10:25:55;;;;;;;9.23;5.80;;;15.30;99.90;;;;;;5007756;28;20508;-84
2022/05/24 10:28:35;;;;;;;10.20;6.13;;;15.50;99.90;;;;;;4975101;28;20042;-85
2022/05/24 10:31:28;;;;;;;12.05;6.13;;;15.70;99.90;;;;;;4975507;28;20049;-84
2022/05/24 10:40:30;;;;;;;8.40;3.88;;;15.20;99.90;;;;;;5008039;28;20038;-84
2022/05/24 10:43:37;;;;;;;4.97;1.90;;;14.70;99.90;;;;;;4897687;29;20055;-84
2022/05/24 10:46:13;;;;;;;4.75;1.30;;;14.20;99.90;;;;;;4879163;29;20703;-84
2022/05/24 10:48:48;;;;;;;4.03;1.30;;;14.00;99.90;;;;;;4876790;29;20044;-83
2022/05/24 10:51:57;;;;;;;4.57;1.38;;;13.80;99.90;;;;;;4879079;29;20075;-84
2022/05/24 10:54:41;;;;;;;5.03;1.50;;;13.70;99.90;;;;;;4863384;29;20055;-84
2022/05/24 10:57:22;;;;;;;5.15;1.58;;;13.60;99.90;;;;;;4878886;29;20092;-84
2022/05/24 10:59:52;;;;;;;4.78;1.90;;;13.70;99.90;;;;;;4878649;29;20045;-84
2022/05/24 11:02:22;;;;;;;6.05;2.35;;;13.80;99.90;;;;;;4863511;29;20622;-84
2022/05/24 11:05:04;;;;;;;6.47;2.45;;;14.10;99.90;;;;;;4878631;29;20108;-84
2022/05/24 11:07:33;;;;;;;6.20;2.80;;;14.40;99.90;;;;;;4878603;29;20483;-83
2022/05/24 11:10:03;;;;;;;6.82;2.72;;;14.40;99.90;;;;;;4894292;29;20052;-84
2022/05/24 11:12:32;;;;;;;6.05;2.42;;;14.50;99.90;;;;;;4878741;29;20049;-84
2022/05/24 11:15:15;;;;;;;6.68;2.53;;;14.50;99.90;;;;;;4878955;29;20531;-84
2022/05/24 11:17:41;;;;;;;8.40;3.50;;;14.50;99.90;;;;;;4890329;28;20051;-83
2022/05/24 11:20:08;;;;;;;7.60;3.60;;;14.60;99.90;;;;;;4954616;28;20409;-84
2022/05/24 11:22:49;;;;;;;9.13;3.45;;;14.60;99.90;;;;;;4939523;28;20070;-84
2022/05/24 11:25:28;;;;;;;6.75;3.08;;;14.50;99.90;;;;;;4955617;28;20612;-84
2022/05/24 11:27:59;;;;;;;5.78;1.80;;;14.30;99.90;;;;;;4939255;28;20049;-84
2022/05/24 11:30:28;;;;;;;6.03;2.00;;;14.10;99.90;;;;;;4939377;28;20046;-84
2022/05/24 11:33:10;;;;;;;5.45;1.70;;;13.90;99.90;;;;;;4955312;28;20039;-84
2022/05/24 11:35:40;;;;;;;4.20;1.42;;;13.60;99.90;;;;;;4939412;28;20555;-84
2022/05/24 11:38:38;;;;;;;8.52;2.45;;;13.30;99.90;;;;;;4938722;28;20043;-84
2022/05/24 11:41:11;;;;;;;5.93;1.95;;;13.10;99.90;;;;;;4938880;28;20130;-83
2022/05/24 11:43:43;;;;;;;5.55;2.17;;;13.00;99.90;;;;;;4938894;28;20047;-84
2022/05/24 11:46:33;;;;;;;5.27;1.60;;;13.10;99.90;;;;;;4939186;28;20072;-83
2022/05/24 11:49:01;;;;;;;5.57;1.90;;;13.10;99.90;;;;;;4954842;28;20089;-84
2022/05/24 11:51:29;;;;;;;4.22;1.83;;;13.20;99.90;;;;;;4939191;28;20078;-84
2022/05/24 11:53:55;;;;;;;6.43;2.17;;;13.30;99.90;;;;;;4939524;28;20487;-84
2022/05/24 11:56:24;;;;;;;5.70;2.33;;;13.40;99.90;;;;;;4955262;28;20070;-84
2022/05/24 11:58:56;;;;;;;6.68;1.95;;;13.50;99.90;;;;;;4939109;28;20047;-84
2022/05/24 12:01:33;;;;;;;6.07;1.83;;;13.60;99.90;;;;;;4955491;28;20411;-84
2022/05/24 12:10:11;;;;;;;4.75;1.98;;;13.50;99.90;;;;;;4954672;28;20137;-84
2022/05/24 12:12:46;;;;;;;6.20;2.58;;;13.40;99.90;;;;;;4953771;28;20045;-84
2022/05/24 12:15:19;;;;;;;7.25;2.33;;;13.40;99.90;;;;;;4938675;28;20051;-84
2022/05/24 12:17:50;;;;;;;5.80;2.90;;;13.40;99.90;;;;;;4935769;28;20047;-84
2022/05/24 12:20:32;;;;;;;6.22;2.50;;;13.50;99.90;;;;;;4952076;28;20081;-83
2022/05/24 12:23:04;;;;;;;6.50;2.10;;;13.50;99.90;;;;;;4936190;28;20042;-84
2022/05/24 12:25:51;;;;;;;5.03;2.03;;;13.60;99.90;;;;;;4936178;28;20060;-84
2022/05/24 12:28:19;;;;;;;7.47;3.25;;;13.60;99.90;;;;;;4951805;28;20046;-84
2022/05/24 12:30:47;;;;;;;4.97;2.35;;;13.70;99.90;;;;;;4953462;28;20161;-84
2022/05/24 12:33:31;;;;;;;6.47;3.00;;;13.70;99.90;;;;;;4955366;28;20563;-84
2022/05/24 12:36:01;;;;;;;5.43;2.17;;;13.80;99.90;;;;;;4955495;28;20047;-84
2022/05/24 12:38:29;;;;;;;7.40;2.65;;;13.80;99.90;;;;;;4955071;28;20097;-84
2022/05/24 12:41:12;;;;;;;8.13;3.70;;;13.70;99.90;;;;;;4939412;28;20496;-84
2022/05/24 12:43:54;;;;;;;7.55;2.83;;;13.90;99.90;;;;;;4955306;28;20043;-84
2022/05/24 12:46:20;;;;;;;6.45;2.30;;;13.90;99.90;;;;;;4939255;28;20109;-84
2022/05/24 12:48:47;;;;;;;6.95;2.65;;;13.90;99.90;;;;;;4938560;28;20129;-83
2022/05/24 12:51:18;;;;;;;6.10;2.72;;;13.90;99.90;;;;;;4955703;28;20041;-83
2022/05/24 12:53:44;;;;;;;7.53;3.17;;;14.10;99.90;;;;;;4956416;28;20039;-83
2022/05/24 12:56:23;;;;;;;6.40;2.55;;;14.30;99.90;;;;;;4956537;28;20432;-84
2022/05/24 12:58:51;;;;;;;5.47;2.45;;;14.50;99.90;;;;;;4941583;28;20399;-84
2022/05/24 13:01:26;;;;;;;6.53;2.80;;;14.70;99.90;;;;;;4941953;28;20106;-84
2022/05/24 13:03:57;;;;;;;6.28;3.08;;;14.80;99.90;;;;;;4957947;28;20193;-84
2022/05/24 13:06:29;;;;;;;5.00;2.28;;;14.80;99.90;;;;;;4941863;28;20128;-84
2022/05/24 13:09:19;;;;;;;4.88;2.35;;;14.80;99.90;;;;;;4957559;28;20038;-83
2022/05/24 13:11:49;;;;;;;4.50;1.80;;;14.80;99.90;;;;;;4957740;28;20075;-84
2022/05/24 13:14:44;;;;;;;5.95;2.63;;;15.00;99.90;;;;;;4941861;28;20046;-84
2022/05/24 13:17:11;;;;;;;4.55;1.90;;;15.30;99.90;;;;;;4941643;28;20034;-83
2022/05/24 13:19:57;;;;;;;4.50;1.95;;;15.60;99.90;;;;;;4941269;28;20495;-83
2022/05/24 13:22:44;;;;;;;3.72;1.30;;;15.80;99.90;;;;;;4957602;28;20051;-83
2022/05/24 13:25:13;;;;;;;4.35;1.40;;;16.00;99.90;;;;;;4973140;28;20051;-84
2022/05/24 13:27:54;;;;;;;5.85;1.65;;;16.10;99.90;;;;;;4941235;28;20097;-84
2022/05/24 13:33:35;;;;;;;4.55;1.77;;;16.40;99.90;;;;;;4957080;28;20082;-84
2022/05/24 13:36:26;;;;;;;6.05;1.70;;;16.50;99.90;;;;;;4941442;28;20042;-83
2022/05/24 13:39:04;;;;;;;4.32;1.50;;;16.40;99.90;;;;;;4958596;28;20109;-83
2022/05/24 13:41:35;;;;;;;4.63;1.73;;;16.20;99.90;;;;;;4975620;28;20039;-84